createdAt,value
2023-01-29T00:00:00.375Z,22.50
2023-01-29T00:02:28.693Z,22.77
2023-01-29T00:04:59.026Z,20.83
2023-01-29T00:07:27.358Z,21.90
2023-01-29T00:09:55.467Z,22.23
2023-01-29T00:12:25.006Z,21.47
2023-01-29T00:14:53.103Z,24.20
2023-01-29T00:17:21.470Z,20.67
2023-01-29T00:19:50.266Z,28.00
2023-01-29T00:22:18.549Z,22.00
2023-01-29T00:24:46.787Z,24.70
2023-01-29T00:27:14.859Z,19.83
2023-01-29T00:30:02.526Z,25.50
2023-01-29T00:32:30.695Z,23.47
2023-01-29T00:35:00.263Z,19.90
2023-01-29T00:37:28.373Z,20.50
2023-01-29T00:39:56.767Z,21.53
2023-01-29T00:42:42.297Z,23.10
2023-01-29T00:45:13.998Z,15.80
2023-01-29T00:47:42.324Z,20.93
2023-01-29T00:50:12.681Z,20.40
2023-01-29T00:52:41.886Z,23.00
2023-01-29T00:55:12.101Z,22.23
2023-01-29T00:57:40.611Z,18.17
2023-01-29T01:00:11.903Z,20.03
2023-01-29T01:02:58.940Z,19.67
2023-01-29T01:05:27.976Z,18.30
2023-01-29T01:07:58.595Z,19.00
2023-01-29T01:10:28.113Z,20.33
2023-01-29T01:12:58.309Z,19.97
2023-01-29T01:15:28.342Z,18.33
2023-01-29T01:17:59.810Z,21.20
2023-01-29T01:20:29.888Z,19.20
2023-01-29T01:22:58.739Z,15.77
2023-01-29T01:25:28.241Z,16.50
2023-01-29T01:27:57.798Z,19.10
2023-01-29T01:30:28.276Z,18.10
2023-01-29T01:32:58.382Z,19.60
2023-01-29T01:35:26.623Z,18.20
2023-01-29T01:37:54.889Z,17.63
2023-01-29T01:40:24.980Z,20.20
2023-01-29T01:42:55.574Z,18.77
2023-01-29T01:45:27.787Z,20.57
2023-01-29T01:48:00.587Z,17.80
2023-01-29T01:50:32.557Z,17.60
2023-01-29T01:53:05.994Z,18.17
2023-01-29T01:55:36.003Z,19.33
2023-01-29T01:58:10.670Z,17.97
2023-01-29T02:00:40.956Z,18.40
2023-01-29T02:03:29.915Z,15.50
2023-01-29T02:06:17.886Z,19.17
2023-01-29T02:09:11.878Z,18.00
2023-01-29T02:11:40.530Z,16.33
2023-01-29T02:14:08.975Z,16.37
2023-01-29T02:16:37.903Z,17.63
2023-01-29T02:19:17.087Z,13.80
2023-01-29T02:22:09.339Z,15.83
2023-01-29T02:25:00.055Z,17.27
2023-01-29T02:27:39.041Z,15.03
2023-01-29T02:30:15.257Z,16.20
2023-01-29T02:32:58.712Z,15.40
2023-01-29T02:35:33.225Z,15.90
2023-01-29T02:38:12.194Z,14.10
2023-01-29T02:40:44.575Z,13.67
2023-01-29T02:43:25.311Z,16.50
2023-01-29T02:46:02.632Z,16.50
2023-01-29T02:48:39.895Z,15.73
2023-01-29T02:51:14.976Z,16.60
2023-01-29T02:53:52.279Z,15.43
2023-01-29T02:56:25.278Z,18.63
2023-01-29T02:59:00.478Z,16.20
2023-01-29T03:01:37.324Z,14.50
2023-01-29T03:04:12.132Z,15.07
2023-01-29T03:06:45.283Z,14.10
2023-01-29T03:09:21.606Z,16.30
2023-01-29T03:11:53.804Z,15.67
2023-01-29T03:14:51.007Z,14.83
2023-01-29T03:17:24.351Z,20.20
2023-01-29T03:19:52.566Z,16.20
2023-01-29T03:22:24.574Z,15.43
2023-01-29T03:25:15.611Z,15.17
2023-01-29T03:28:08.832Z,15.53
2023-01-29T03:31:04.097Z,15.27
2023-01-29T03:33:46.716Z,14.63
2023-01-29T03:36:19.668Z,16.33
2023-01-29T03:38:48.095Z,15.77
2023-01-29T03:41:24.826Z,19.90
2023-01-29T03:44:02.052Z,17.13
2023-01-29T03:46:37.693Z,16.03
2023-01-29T03:49:16.738Z,15.90
2023-01-29T03:51:54.538Z,16.83
2023-01-29T03:54:27.304Z,15.87
2023-01-29T03:57:01.339Z,15.30
2023-01-29T03:59:36.978Z,18.70
2023-01-29T04:02:19.412Z,19.00
2023-01-29T04:04:53.219Z,18.83
2023-01-29T04:07:27.844Z,16.40
2023-01-29T04:10:06.852Z,18.13
2023-01-29T04:12:39.417Z,17.87
2023-01-29T04:15:12.076Z,17.97
2023-01-29T04:17:43.910Z,17.33
2023-01-29T04:20:21.069Z,16.87
2023-01-29T04:22:51.640Z,18.53
2023-01-29T04:25:26.660Z,17.20
2023-01-29T04:28:05.310Z,15.80
2023-01-29T04:30:44.079Z,17.60
2023-01-29T04:33:22.332Z,16.97
2023-01-29T04:36:06.233Z,16.37
2023-01-29T04:38:48.088Z,14.40
2023-01-29T04:41:23.187Z,17.33
2023-01-29T04:44:01.613Z,15.90
2023-01-29T04:46:37.003Z,17.83
2023-01-29T04:49:16.807Z,16.17
2023-01-29T04:51:51.873Z,16.50
2023-01-29T04:54:27.086Z,14.87
2023-01-29T04:57:03.251Z,16.40
2023-01-29T04:59:37.508Z,18.43
2023-01-29T05:02:07.334Z,16.20
2023-01-29T05:04:36.813Z,16.70
2023-01-29T05:07:09.823Z,19.20
2023-01-29T05:09:39.925Z,19.07
2023-01-29T05:12:11.223Z,18.20
2023-01-29T05:14:42.953Z,18.23
2023-01-29T05:17:16.717Z,17.70
2023-01-29T05:19:45.395Z,15.77
2023-01-29T05:22:18.195Z,18.57
2023-01-29T05:24:46.596Z,16.23
2023-01-29T05:27:37.421Z,19.07
2023-01-29T05:30:06.677Z,16.87
2023-01-29T05:32:34.927Z,15.40
2023-01-29T05:35:03.170Z,13.47
2023-01-29T05:37:32.606Z,16.43
2023-01-29T05:40:01.559Z,14.63
2023-01-29T05:42:29.933Z,14.90
2023-01-29T05:44:58.158Z,16.37
2023-01-29T05:47:26.592Z,14.10
2023-01-29T05:49:54.692Z,14.73
2023-01-29T05:52:22.752Z,14.80
2023-01-29T05:54:52.434Z,16.50
2023-01-29T05:57:20.536Z,14.20
2023-01-29T05:59:48.631Z,16.20
2023-01-29T06:02:16.784Z,14.50
2023-01-29T06:04:44.901Z,16.30
2023-01-29T06:07:13.094Z,12.87
2023-01-29T06:09:41.123Z,15.17
2023-01-29T06:12:10.943Z,15.37
2023-01-29T06:14:38.985Z,13.23
2023-01-29T06:17:07.442Z,12.90
2023-01-29T06:19:35.679Z,14.50
2023-01-29T06:22:03.811Z,14.87
2023-01-29T06:24:32.892Z,13.87
2023-01-29T06:27:01.125Z,15.00
2023-01-29T06:29:30.531Z,11.47
2023-01-29T06:31:58.913Z,16.50
2023-01-29T06:34:27.231Z,13.83
2023-01-29T06:36:55.721Z,14.13
2023-01-29T06:39:23.743Z,15.07
2023-01-29T06:41:51.918Z,14.27
2023-01-29T06:44:20.674Z,12.60
2023-01-29T06:46:50.307Z,18.10
2023-01-29T06:49:18.400Z,14.57
2023-01-29T06:51:46.497Z,16.87
2023-01-29T06:54:14.783Z,14.10
2023-01-29T06:56:42.942Z,15.47
2023-01-29T06:59:12.316Z,14.70
2023-01-29T07:01:42.455Z,17.50
2023-01-29T07:04:11.993Z,16.30
2023-01-29T07:06:40.322Z,15.20
2023-01-29T07:09:08.430Z,15.37
2023-01-29T07:11:38.012Z,14.30
2023-01-29T07:14:06.552Z,15.60
2023-01-29T07:16:35.410Z,13.60
2023-01-29T07:19:03.592Z,13.17
2023-01-29T07:21:33.180Z,16.87
2023-01-29T07:24:01.424Z,15.47
2023-01-29T07:26:30.143Z,13.03
2023-01-29T07:28:58.265Z,15.17
2023-01-29T07:31:26.497Z,15.43
2023-01-29T07:33:55.355Z,14.17
2023-01-29T07:36:24.218Z,14.17
2023-01-29T07:38:53.959Z,14.00
2023-01-29T07:41:22.184Z,14.57
2023-01-29T07:43:50.277Z,15.97
2023-01-29T07:46:18.367Z,14.27
2023-01-29T07:48:46.449Z,16.50
2023-01-29T07:51:14.753Z,13.63
2023-01-29T07:53:44.370Z,15.80
2023-01-29T07:56:13.913Z,14.60
2023-01-29T07:58:42.018Z,13.60
2023-01-29T08:01:10.183Z,17.40
2023-01-29T08:03:38.411Z,19.07
2023-01-29T08:06:07.007Z,16.00
2023-01-29T08:08:35.477Z,15.93
2023-01-29T08:11:04.496Z,13.87
2023-01-29T08:13:34.524Z,20.00
2023-01-29T08:16:03.342Z,15.40
2023-01-29T08:18:32.370Z,19.93
2023-01-29T08:21:01.764Z,15.93
2023-01-29T08:23:29.922Z,14.97
2023-01-29T08:25:58.287Z,15.70
2023-01-29T08:28:26.483Z,16.80
2023-01-29T08:30:56.089Z,16.23
2023-01-29T08:33:37.940Z,17.23
2023-01-29T08:36:07.538Z,15.47
2023-01-29T08:38:36.874Z,16.07
2023-01-29T08:41:05.795Z,16.43
2023-01-29T08:43:35.215Z,16.40
2023-01-29T08:46:05.915Z,17.70
2023-01-29T08:48:34.332Z,16.47
2023-01-29T08:51:04.403Z,16.53
2023-01-29T08:53:32.887Z,14.43
2023-01-29T08:56:01.487Z,13.00
2023-01-29T08:58:29.807Z,15.07
2023-01-29T09:00:58.153Z,13.70
2023-01-29T09:03:27.869Z,16.50
2023-01-29T09:05:55.910Z,14.40
2023-01-29T09:08:24.221Z,14.00
2023-01-29T09:10:52.514Z,12.37
2023-01-29T09:13:20.773Z,14.93
2023-01-29T09:15:48.902Z,15.67
2023-01-29T09:18:16.923Z,12.80
2023-01-29T09:20:46.441Z,13.10
2023-01-29T09:23:14.622Z,13.80
2023-01-29T09:25:44.261Z,13.20
2023-01-29T09:28:12.583Z,14.77
2023-01-29T09:30:41.030Z,13.20
2023-01-29T09:33:09.303Z,13.83
2023-01-29T09:35:38.549Z,12.60
2023-01-29T09:38:08.187Z,13.90
2023-01-29T09:40:44.714Z,13.70
2023-01-29T09:43:17.918Z,14.43
2023-01-29T09:45:54.321Z,11.03
2023-01-29T09:48:27.384Z,11.53
2023-01-29T09:50:59.763Z,14.70
2023-01-29T09:53:37.899Z,13.37
2023-01-29T09:56:12.087Z,13.93
2023-01-29T09:58:43.585Z,12.57
2023-01-29T10:01:21.544Z,11.17
2023-01-29T10:04:21.370Z,12.63
2023-01-29T10:07:02.482Z,12.50
2023-01-29T10:10:03.530Z,12.20
2023-01-29T10:12:43.858Z,11.70
2023-01-29T10:15:26.062Z,13.10
2023-01-29T10:18:05.775Z,11.67
2023-01-29T10:20:55.507Z,15.00
2023-01-29T10:23:28.000Z,12.00
2023-01-29T10:25:57.739Z,10.60
2023-01-29T10:28:30.527Z,13.17
2023-01-29T10:31:03.239Z,11.87
2023-01-29T10:33:49.212Z,12.77
2023-01-29T10:36:34.346Z,11.97
2023-01-29T10:39:02.505Z,15.33
2023-01-29T10:41:49.821Z,10.80
2023-01-29T10:44:28.460Z,11.30
2023-01-29T10:47:30.544Z,12.80
2023-01-29T10:50:14.362Z,11.37
2023-01-29T10:52:57.287Z,10.60
2023-01-29T10:55:37.282Z,12.07
2023-01-29T10:58:15.316Z,12.30
2023-01-29T11:00:43.928Z,13.70
2023-01-29T11:03:27.584Z,11.90
2023-01-29T11:06:04.008Z,12.57
2023-01-29T11:08:38.429Z,12.37
2023-01-29T11:11:09.710Z,13.40
2023-01-29T11:13:44.572Z,30.53
2023-01-29T11:16:13.194Z,16.70
2023-01-29T11:18:52.942Z,16.47
2023-01-29T11:21:21.467Z,12.20
2023-01-29T11:23:50.353Z,13.03
2023-01-29T11:26:22.253Z,10.13
2023-01-29T11:28:52.570Z,13.23
2023-01-29T11:31:23.719Z,11.33
2023-01-29T11:33:54.963Z,9.13
2023-01-29T11:36:32.766Z,9.27
2023-01-29T11:39:16.054Z,11.00
2023-01-29T11:41:45.658Z,8.63
2023-01-29T11:44:22.797Z,9.60
2023-01-29T11:46:51.530Z,9.27
2023-01-29T11:49:34.940Z,11.73
2023-01-29T11:52:06.537Z,10.20
2023-01-29T11:54:39.496Z,10.97
2023-01-29T11:57:29.545Z,9.60
2023-01-29T12:00:03.523Z,13.50
2023-01-29T12:02:39.430Z,13.77
2023-01-29T12:05:16.654Z,11.33
2023-01-29T12:07:47.299Z,12.97
2023-01-29T12:10:34.084Z,12.33
2023-01-29T12:13:21.616Z,12.67
2023-01-29T12:15:53.847Z,15.50
2023-01-29T12:18:30.806Z,18.40
2023-01-29T12:21:03.589Z,15.27
2023-01-29T12:23:39.475Z,16.93
2023-01-29T12:26:16.087Z,12.13
2023-01-29T12:28:56.012Z,11.90
2023-01-29T12:31:36.271Z,10.73
2023-01-29T12:34:13.812Z,12.63
2023-01-29T12:36:52.978Z,11.23
2023-01-29T12:39:22.416Z,13.83
2023-01-29T12:41:57.168Z,12.63
2023-01-29T12:44:31.347Z,11.47
2023-01-29T12:47:04.401Z,12.67
2023-01-29T12:49:36.681Z,11.13
2023-01-29T12:52:13.493Z,10.87
2023-01-29T12:54:48.243Z,12.30
2023-01-29T12:57:24.101Z,12.00
2023-01-29T12:59:57.064Z,14.87
2023-01-29T13:02:33.984Z,12.10
2023-01-29T13:05:07.178Z,12.17
2023-01-29T13:07:40.826Z,11.63
2023-01-29T13:10:15.085Z,13.60
2023-01-29T13:12:55.736Z,10.33
2023-01-29T13:15:28.425Z,12.17
2023-01-29T13:18:03.932Z,17.50
2023-01-29T13:20:35.225Z,11.57
2023-01-29T13:23:23.933Z,25.87
2023-01-29T13:25:53.126Z,16.40
2023-01-29T13:28:24.760Z,15.27
2023-01-29T13:31:13.597Z,12.27
2023-01-29T13:33:52.317Z,10.53
2023-01-29T13:36:27.025Z,11.27
2023-01-29T13:39:01.012Z,12.50
2023-01-29T13:41:37.538Z,11.93
2023-01-29T13:44:09.008Z,12.20
2023-01-29T13:46:42.199Z,11.40
2023-01-29T13:49:30.942Z,11.03
2023-01-29T13:52:14.861Z,13.87
2023-01-29T13:54:52.510Z,12.03
2023-01-29T13:57:55.868Z,13.10
2023-01-29T14:01:01.717Z,14.53
2023-01-29T14:04:03.652Z,13.90
2023-01-29T14:06:50.093Z,15.83
2023-01-29T14:10:03.386Z,14.77
2023-01-29T14:12:44.233Z,16.10
2023-01-29T14:15:29.797Z,13.70
2023-01-29T14:18:06.171Z,14.13
2023-01-29T14:20:46.071Z,12.83
2023-01-29T14:23:30.364Z,12.60
2023-01-29T14:26:01.136Z,13.30
2023-01-29T14:28:31.801Z,14.40
2023-01-29T14:31:00.940Z,13.77
2023-01-29T14:33:35.487Z,16.33
2023-01-29T14:36:07.028Z,14.00
2023-01-29T14:38:37.278Z,14.43
2023-01-29T14:41:15.583Z,12.60
2023-01-29T14:43:43.845Z,16.47
2023-01-29T14:46:43.551Z,13.47
2023-01-29T14:49:11.905Z,17.10
2023-01-29T14:51:45.568Z,14.33
2023-01-29T14:54:23.973Z,14.80
2023-01-29T14:56:59.772Z,10.70
2023-01-29T14:59:34.631Z,15.37
2023-01-29T15:02:13.358Z,15.07
2023-01-29T15:04:47.941Z,17.00
2023-01-29T15:07:31.534Z,16.13
2023-01-29T15:10:21.902Z,15.17
2023-01-29T15:12:58.331Z,15.93
2023-01-29T15:15:36.528Z,15.63
2023-01-29T15:18:09.362Z,12.00
2023-01-29T15:20:39.894Z,14.93
2023-01-29T15:23:25.785Z,14.73
2023-01-29T15:25:58.021Z,14.77
2023-01-29T15:28:27.866Z,16.90
2023-01-29T15:30:57.559Z,13.43
2023-01-29T15:33:26.315Z,12.87
2023-01-29T15:36:06.942Z,12.97
2023-01-29T15:38:38.276Z,18.17
2023-01-29T15:41:19.699Z,16.50
2023-01-29T15:43:49.659Z,14.77
2023-01-29T15:46:23.231Z,16.40
2023-01-29T15:48:52.482Z,15.87
2023-01-29T15:51:23.466Z,19.93
2023-01-29T15:53:54.943Z,17.90
2023-01-29T15:56:28.126Z,16.93
2023-01-29T15:58:59.144Z,15.40
2023-01-29T16:01:28.823Z,16.60
2023-01-29T16:03:59.521Z,21.67
2023-01-29T16:06:28.941Z,17.17
2023-01-29T16:08:57.461Z,17.63
2023-01-29T16:11:27.503Z,14.50
2023-01-29T16:13:56.491Z,14.10
2023-01-29T16:16:26.689Z,17.97
2023-01-29T16:19:00.335Z,17.40
2023-01-29T16:21:32.947Z,18.87
2023-01-29T16:24:03.715Z,14.43
2023-01-29T16:26:35.739Z,14.80
2023-01-29T16:29:09.243Z,19.17
2023-01-29T16:31:38.982Z,17.13
2023-01-29T16:34:10.244Z,15.93
2023-01-29T16:36:38.613Z,19.90
2023-01-29T16:39:18.727Z,18.20
2023-01-29T16:42:20.864Z,19.33
2023-01-29T16:44:53.566Z,16.33
2023-01-29T16:47:28.506Z,19.57
2023-01-29T16:49:59.633Z,16.73
2023-01-29T16:52:30.969Z,15.70
2023-01-29T16:55:15.992Z,16.93
2023-01-29T16:57:50.702Z,17.20
2023-01-29T17:00:24.326Z,17.90
2023-01-29T17:02:56.018Z,16.13
2023-01-29T17:05:29.332Z,20.60
2023-01-29T17:07:59.464Z,20.40
2023-01-29T17:10:29.476Z,20.97
2023-01-29T17:13:02.048Z,16.57
2023-01-29T17:15:44.147Z,17.13
2023-01-29T17:18:19.039Z,21.23
2023-01-29T17:20:47.378Z,17.87
2023-01-29T17:23:15.823Z,19.03
2023-01-29T17:25:45.011Z,14.93
2023-01-29T17:28:16.357Z,19.90
2023-01-29T17:30:56.646Z,20.97
2023-01-29T17:33:28.667Z,19.50
2023-01-29T17:35:57.250Z,18.50
2023-01-29T17:38:26.962Z,23.27
2023-01-29T17:40:58.990Z,20.90
2023-01-29T17:43:28.540Z,19.17
2023-01-29T17:45:57.201Z,18.17
2023-01-29T17:48:26.521Z,18.13
2023-01-29T17:50:56.515Z,14.90
2023-01-29T17:53:30.590Z,20.07
2023-01-29T17:56:04.850Z,16.00
2023-01-29T17:58:34.418Z,18.43
2023-01-29T18:01:02.820Z,20.80
2023-01-29T18:03:31.147Z,19.60
2023-01-29T18:05:59.746Z,15.90
2023-01-29T18:08:31.214Z,20.50
2023-01-29T18:11:00.621Z,16.80
2023-01-29T18:13:29.143Z,16.00
2023-01-29T18:15:58.854Z,20.63
2023-01-29T18:18:27.234Z,16.90
2023-01-29T18:20:55.407Z,17.80
2023-01-29T18:23:23.584Z,18.27
2023-01-29T18:25:52.760Z,17.00
2023-01-29T18:28:20.994Z,14.93
2023-01-29T18:30:49.164Z,18.50
2023-01-29T18:33:19.206Z,16.60
2023-01-29T18:35:49.024Z,17.07
2023-01-29T18:38:17.954Z,15.70
2023-01-29T18:40:46.027Z,13.93
2023-01-29T18:43:15.486Z,14.77
2023-01-29T18:45:44.342Z,13.57
2023-01-29T18:48:12.553Z,16.60
2023-01-29T18:50:42.159Z,16.57
2023-01-29T18:53:10.401Z,15.30
2023-01-29T18:55:38.556Z,13.83
2023-01-29T18:58:28.983Z,16.93
2023-01-29T19:00:55.107Z,17.90
2023-01-29T19:03:23.324Z,16.53
2023-01-29T19:05:52.861Z,17.47
2023-01-29T19:08:21.103Z,18.83
2023-01-29T19:10:49.228Z,18.40
2023-01-29T19:13:17.461Z,17.00
2023-01-29T19:15:48.107Z,15.70
2023-01-29T19:18:16.781Z,16.90
2023-01-29T19:20:45.039Z,18.77
2023-01-29T19:23:14.440Z,16.33
2023-01-29T19:25:42.697Z,13.93
2023-01-29T19:28:10.950Z,15.27
2023-01-29T19:30:39.183Z,14.90
2023-01-29T19:33:07.513Z,15.00
2023-01-29T19:35:35.734Z,16.70
2023-01-29T19:38:03.842Z,17.50
2023-01-29T19:40:33.496Z,17.83
2023-01-29T19:43:01.600Z,19.83
2023-01-29T19:45:43.106Z,19.30
2023-01-29T19:48:21.478Z,17.40
2023-01-29T19:50:54.666Z,17.90
2023-01-29T19:53:23.108Z,17.83
2023-01-29T19:56:00.588Z,18.60
2023-01-29T19:58:29.457Z,15.40
2023-01-29T20:00:58.366Z,16.33
2023-01-29T20:03:28.229Z,15.97
2023-01-29T20:05:56.556Z,18.80
2023-01-29T20:08:24.912Z,17.07
2023-01-29T20:10:53.161Z,18.30
2023-01-29T20:13:22.875Z,16.33
2023-01-29T20:15:52.294Z,17.90
2023-01-29T20:18:20.915Z,21.23
2023-01-29T20:20:50.782Z,20.93
2023-01-29T20:23:31.772Z,18.80
2023-01-29T20:26:05.961Z,20.93
2023-01-29T20:28:36.262Z,19.00
2023-01-29T20:31:05.670Z,19.87
2023-01-29T20:33:37.496Z,19.20
2023-01-29T20:36:09.386Z,20.10
2023-01-29T20:38:37.701Z,22.13
2023-01-29T20:41:07.894Z,20.27
2023-01-29T20:43:37.528Z,20.27
2023-01-29T20:46:06.395Z,19.77
2023-01-29T20:48:34.889Z,16.63
2023-01-29T20:51:08.085Z,19.70
2023-01-29T20:53:36.820Z,22.97
2023-01-29T20:56:05.445Z,20.73
2023-01-29T20:58:33.880Z,17.97
2023-01-29T21:01:10.275Z,17.03
2023-01-29T21:03:39.866Z,22.97
2023-01-29T21:06:09.100Z,17.20
2023-01-29T21:08:37.782Z,18.93
2023-01-29T21:11:07.604Z,18.60
2023-01-29T21:13:36.007Z,21.33
2023-01-29T21:16:06.287Z,21.10
2023-01-29T21:18:34.440Z,20.07
2023-01-29T21:21:02.647Z,19.23
2023-01-29T21:23:30.953Z,21.40
2023-01-29T21:26:03.186Z,19.33
2023-01-29T21:28:31.272Z,16.90
2023-01-29T21:31:09.390Z,20.80
2023-01-29T21:33:38.735Z,24.43
2023-01-29T21:36:08.487Z,19.33
2023-01-29T21:38:36.593Z,19.97
2023-01-29T21:41:06.686Z,21.00
2023-01-29T21:43:34.099Z,19.00
2023-01-29T21:46:05.255Z,22.07
2023-01-29T21:48:34.913Z,19.00
2023-01-29T21:51:03.034Z,22.10
2023-01-29T21:53:31.250Z,21.20
2023-01-29T21:56:01.518Z,18.17
2023-01-29T21:58:29.975Z,20.53
2023-01-29T22:01:18.553Z,23.80
2023-01-29T22:03:47.913Z,17.83
2023-01-29T22:06:16.400Z,18.80
2023-01-29T22:08:44.728Z,20.50
2023-01-29T22:11:13.012Z,22.67
2023-01-29T22:13:41.255Z,19.87
2023-01-29T22:16:09.896Z,23.20
2023-01-29T22:18:38.173Z,21.33
2023-01-29T22:21:07.959Z,20.33
2023-01-29T22:23:36.462Z,21.90
2023-01-29T22:26:05.371Z,24.27
2023-01-29T22:28:33.962Z,24.70
2023-01-29T22:31:02.997Z,26.70
2023-01-29T22:33:31.540Z,26.30
2023-01-29T22:35:59.568Z,25.60
2023-01-29T22:38:29.348Z,28.13
2023-01-29T22:40:58.490Z,25.90
2023-01-29T22:43:26.976Z,28.47
2023-01-29T22:45:56.438Z,30.03
2023-01-29T22:48:24.838Z,29.77
2023-01-29T22:51:09.379Z,22.10
2023-01-29T22:53:39.738Z,27.07
2023-01-29T22:56:09.308Z,27.60
2023-01-29T22:58:37.628Z,25.30
2023-01-29T23:01:06.185Z,25.40
2023-01-29T23:03:34.772Z,22.77
2023-01-29T23:06:03.536Z,24.57
2023-01-29T23:08:33.773Z,24.00
2023-01-29T23:11:14.364Z,23.13
2023-01-29T23:13:44.373Z,26.37
2023-01-29T23:16:13.846Z,28.10
2023-01-29T23:18:43.712Z,27.80
2023-01-29T23:21:12.556Z,26.00
2023-01-29T23:23:40.672Z,21.53
2023-01-29T23:26:30.396Z,31.90
2023-01-29T23:28:58.637Z,25.70
2023-01-29T23:31:27.383Z,25.63
2023-01-29T23:33:55.543Z,24.93
2023-01-29T23:36:23.657Z,21.90
2023-01-29T23:38:51.736Z,22.10
2023-01-29T23:41:21.771Z,24.13
2023-01-29T23:43:50.232Z,25.33
2023-01-29T23:46:18.472Z,30.07
2023-01-29T23:48:46.660Z,25.97
2023-01-29T23:51:14.817Z,23.43
2023-01-29T23:53:43.046Z,23.70
2023-01-29T23:56:12.164Z,28.13
2023-01-29T23:58:41.782Z,23.17
